Terminal Aerodrome Forecast
Issued by NWS Missoula, MT

Home | Current Version | Previous Version | Text Only | Print | Product List | Glossary On
Versions: 1 2 3 4 5 6 7 8 9 10 11 12 13 14 15 16 17 18 19
000
FTUS45 KMSO 201700
TAFMSO
TAF
KMSO 201740Z 2018/2118 32007KT P6SM VCSH BKN070
     FM201930 29008KT P6SM VCTS BKN060CB
     FM202100 31009KT P6SM VCSH BKN070
     FM210000 34008KT P6SM VCTS BKN050CB
     FM210300 VRB05KT P6SM -SHRA OVC050=

USA.gov is the U.S. government's official web portal to all federal, state and local government web resources and services.